Time;durP1;ratioP1;P1;durP2;ratioP2;P2;SDS_P1;SDS_P2;PMS_P1;PMS_P2;Temp;Humidity;BMP_temperature;BMP_pressure;BME280_temperature;BME280_humidity;BME280_pressure;Samples;Min_cycle;Max_cycle;Signal;HPM_P1;HPM_P2
2021/05/02 00:01:56;;;;;;;42.70;23.45;;;7.20;99.90;;;;;;5090680;28;20088;-40
2021/05/02 00:04:22;;;;;;;47.58;24.75;;;7.10;99.90;;;;;;5090993;28;20051;-40
2021/05/02 00:06:48;;;;;;;37.80;22.25;;;7.10;99.90;;;;;;5090670;28;20020;-40
2021/05/02 00:09:14;;;;;;;41.50;21.60;;;7.20;99.90;;;;;;5090969;28;20085;-40
2021/05/02 00:11:39;;;;;;;44.40;22.90;;;7.20;99.90;;;;;;5090764;28;20028;-40
2021/05/02 00:14:05;;;;;;;41.97;22.63;;;7.20;99.90;;;;;;5089557;28;20081;-40
2021/05/02 00:16:31;;;;;;;46.72;24.55;;;7.20;99.90;;;;;;5090867;28;20379;-40
2021/05/02 00:18:57;;;;;;;46.97;24.63;;;7.20;99.90;;;;;;5090502;28;20414;-40
2021/05/02 00:21:24;;;;;;;42.13;23.85;;;7.20;99.90;;;;;;5090864;28;20483;-40
2021/05/02 00:23:49;;;;;;;42.15;22.65;;;7.10;99.90;;;;;;5090406;28;20088;-40
2021/05/02 00:26:15;;;;;;;39.75;21.60;;;7.10;99.90;;;;;;5090679;28;20028;-42
2021/05/02 00:28:46;;;;;;;38.92;22.33;;;7.10;99.90;;;;;;5089346;28;20036;-40
2021/05/02 00:31:13;;;;;;;39.67;21.83;;;7.10;99.90;;;;;;5090661;28;20040;-40
2021/05/02 00:33:40;;;;;;;42.75;23.20;;;7.10;99.90;;;;;;5091037;28;20487;-40
2021/05/02 00:36:06;;;;;;;45.85;23.52;;;7.10;99.90;;;;;;5094430;28;20035;-40
2021/05/02 00:38:35;;;;;;;36.50;21.27;;;7.10;99.90;;;;;;5094599;28;20036;-40
2021/05/02 00:41:05;;;;;;;37.13;20.50;;;7.10;99.90;;;;;;5094661;28;20501;-40
2021/05/02 00:43:38;;;;;;;33.88;18.55;;;7.10;99.90;;;;;;5093394;28;20663;-40
2021/05/02 00:46:21;;;;;;;37.72;19.33;;;7.10;99.90;;;;;;5094459;28;20016;-40
2021/05/02 00:49:02;;;;;;;33.40;17.00;;;7.10;99.90;;;;;;5094667;28;20034;-40
2021/05/02 00:51:29;;;;;;;42.63;21.30;;;7.10;99.90;;;;;;5094474;28;20486;-40
2021/05/02 00:54:07;;;;;;;39.55;19.67;;;7.10;99.90;;;;;;5094030;28;20054;-42
2021/05/02 00:56:55;;;;;;;42.55;22.35;;;7.10;99.90;;;;;;5094374;28;20032;-40
2021/05/02 00:59:43;;;;;;;45.70;22.48;;;7.10;99.90;;;;;;5093009;28;20017;-40
2021/05/02 01:02:10;;;;;;;42.67;22.42;;;7.20;99.90;;;;;;5094003;28;20020;-45
2021/05/02 01:04:40;;;;;;;36.45;20.98;;;7.20;99.90;;;;;;5094023;28;20078;-40
2021/05/02 01:07:13;;;;;;;40.22;21.65;;;7.20;99.90;;;;;;5094081;28;20028;-40
2021/05/02 01:09:38;;;;;;;36.85;20.77;;;7.20;99.90;;;;;;5093822;28;20023;-40
2021/05/02 01:12:14;;;;;;;40.85;20.63;;;7.10;99.90;;;;;;5093990;28;20082;-40
2021/05/02 01:15:00;;;;;;;41.08;20.30;;;7.10;99.90;;;;;;5092881;28;20107;-40
2021/05/02 01:17:27;;;;;;;36.97;19.95;;;7.10;99.90;;;;;;5093890;28;20060;-40
2021/05/02 01:19:53;;;;;;;43.30;21.92;;;7.10;99.90;;;;;;5094030;28;20071;-40
2021/05/02 01:22:21;;;;;;;38.38;20.83;;;7.10;99.90;;;;;;5093637;28;20062;-40
2021/05/02 01:24:49;;;;;;;38.75;21.52;;;7.10;99.90;;;;;;5093775;28;20024;-40
2021/05/02 01:27:28;;;;;;;37.95;19.92;;;7.10;99.90;;;;;;5093586;28;20028;-42
2021/05/02 01:29:55;;;;;;;40.92;20.55;;;7.10;99.90;;;;;;5092491;28;20024;-40
2021/05/02 01:32:22;;;;;;;41.20;21.17;;;7.10;99.90;;;;;;5093506;28;20052;-40
2021/05/02 01:34:49;;;;;;;34.90;19.10;;;7.10;99.90;;;;;;5095404;28;20133;-40
2021/05/02 01:37:15;;;;;;;36.25;20.70;;;7.10;99.90;;;;;;5095279;28;20036;-40
2021/05/02 01:39:40;;;;;;;41.53;21.25;;;7.10;99.90;;;;;;5095287;28;20031;-40
2021/05/02 01:42:06;;;;;;;39.97;21.33;;;7.10;99.90;;;;;;5095248;28;20024;-40
2021/05/02 01:44:32;;;;;;;35.53;18.83;;;7.10;99.90;;;;;;5093966;28;20032;-40
2021/05/02 01:47:03;;;;;;;45.25;21.42;;;7.10;99.90;;;;;;5094547;28;20132;-40
2021/05/02 01:49:32;;;;;;;42.00;21.77;;;7.10;99.90;;;;;;5095072;28;20056;-40
2021/05/02 01:51:59;;;;;;;37.15;20.25;;;7.10;99.90;;;;;;5095081;28;20036;-40
2021/05/02 01:54:24;;;;;;;32.00;18.60;;;7.10;99.90;;;;;;5094934;28;20016;-40
2021/05/02 01:56:50;;;;;;;35.08;18.85;;;7.10;99.90;;;;;;5094973;28;20034;-40
2021/05/02 01:59:17;;;;;;;36.88;19.00;;;7.10;99.90;;;;;;5093601;28;20032;-40
2021/05/02 02:01:43;;;;;;;35.38;18.65;;;7.10;99.90;;;;;;5094853;28;20027;-40
2021/05/02 02:04:09;;;;;;;36.80;18.67;;;7.10;99.90;;;;;;5094569;28;20073;-39
2021/05/02 02:06:34;;;;;;;37.70;18.95;;;7.10;99.90;;;;;;5094862;28;20039;-40
2021/05/02 02:09:08;;;;;;;42.25;21.48;;;7.00;99.90;;;;;;5094560;28;20175;-40
2021/05/02 02:11:33;;;;;;;36.08;19.08;;;7.00;99.90;;;;;;5094839;28;20032;-39
2021/05/02 02:14:00;;;;;;;40.80;20.13;;;7.00;99.90;;;;;;5093311;28;20524;-40
2021/05/02 02:16:26;;;;;;;40.85;21.98;;;7.00;99.90;;;;;;5094653;28;20270;-40
2021/05/02 02:18:53;;;;;;;31.85;17.75;;;7.10;99.90;;;;;;5094470;28;20524;-40
2021/05/02 02:21:22;;;;;;;38.72;20.95;;;7.00;99.90;;;;;;5094514;28;20034;-39
2021/05/02 02:24:00;;;;;;;33.70;18.00;;;7.00;99.90;;;;;;5094474;28;20027;-40
2021/05/02 02:26:39;;;;;;;39.05;19.73;;;7.00;99.90;;;;;;5094294;28;20024;-40
2021/05/02 02:29:07;;;;;;;33.55;17.90;;;7.00;99.90;;;;;;5093013;28;20028;-40
2021/05/02 02:31:35;;;;;;;38.42;18.33;;;7.00;99.90;;;;;;5094502;28;20484;-40
2021/05/02 02:34:04;;;;;;;34.00;18.38;;;7.00;99.90;;;;;;5094282;28;20103;-40
2021/05/02 02:36:31;;;;;;;33.58;17.73;;;7.00;99.90;;;;;;5094336;28;20031;-40
2021/05/02 02:38:57;;;;;;;44.55;20.83;;;7.00;99.90;;;;;;5094067;28;20082;-40
2021/05/02 02:41:25;;;;;;;38.80;21.58;;;7.00;99.90;;;;;;5094053;28;20356;-42
2021/05/02 02:43:56;;;;;;;40.10;20.50;;;7.00;99.90;;;;;;5092839;28;20027;-40
2021/05/02 02:46:23;;;;;;;35.75;18.02;;;7.00;99.90;;;;;;5094065;28;20028;-42
2021/05/02 02:48:54;;;;;;;40.25;20.40;;;7.00;99.90;;;;;;5094006;28;20569;-41
2021/05/02 02:51:21;;;;;;;40.53;20.52;;;7.00;99.90;;;;;;5085999;28;20052;-40
2021/05/02 02:53:50;;;;;;;34.40;18.25;;;7.00;99.90;;;;;;5073473;28;20406;-43
2021/05/02 02:56:22;;;;;;;29.73;17.67;;;7.00;99.90;;;;;;5073448;28;20426;-40
2021/05/02 02:58:57;;;;;;;38.55;19.48;;;7.00;99.90;;;;;;5071537;28;20039;-40
2021/05/02 03:01:25;;;;;;;41.33;20.35;;;7.00;99.90;;;;;;5073492;28;20542;-41
2021/05/02 03:03:58;;;;;;;37.22;19.10;;;6.90;99.90;;;;;;5073458;28;20040;-40
2021/05/02 03:06:27;;;;;;;36.60;19.45;;;6.90;99.90;;;;;;5073254;28;20075;-39
2021/05/02 03:08:55;;;;;;;34.90;19.10;;;6.90;99.90;;;;;;5073270;28;20058;-39
2021/05/02 03:11:21;;;;;;;37.22;18.75;;;6.90;99.90;;;;;;5092957;28;20020;-39
2021/05/02 03:13:47;;;;;;;38.35;19.48;;;6.90;99.90;;;;;;5092183;28;20020;-39
2021/05/02 03:16:13;;;;;;;36.78;17.00;;;6.90;99.90;;;;;;5093474;28;20383;-40
2021/05/02 03:18:52;;;;;;;42.58;20.70;;;6.90;99.90;;;;;;5093262;28;20031;-40
2021/05/02 03:21:22;;;;;;;37.38;18.73;;;6.90;99.90;;;;;;5093433;28;20016;-39
2021/05/02 03:23:51;;;;;;;35.88;17.27;;;6.90;99.90;;;;;;5093361;28;20024;-39
2021/05/02 03:26:21;;;;;;;33.15;15.95;;;6.90;99.90;;;;;;5093219;28;20016;-39
2021/05/02 03:28:52;;;;;;;33.97;17.02;;;6.90;99.90;;;;;;5092001;28;20031;-40
2021/05/02 03:31:29;;;;;;;36.33;18.13;;;6.90;99.90;;;;;;5093174;28;20016;-40
2021/05/02 03:34:00;;;;;;;34.75;17.50;;;6.90;99.90;;;;;;5093110;28;20103;-39
2021/05/02 03:36:38;;;;;;;36.78;18.10;;;6.90;99.90;;;;;;5093190;28;20064;-39
2021/05/02 03:39:05;;;;;;;36.97;18.23;;;6.90;99.90;;;;;;5093062;28;20386;-39
2021/05/02 03:41:34;;;;;;;35.88;17.30;;;6.90;99.90;;;;;;5092948;28;20091;-40
2021/05/02 03:44:00;;;;;;;31.02;17.30;;;6.90;99.90;;;;;;5091662;28;20383;-40
2021/05/02 03:46:26;;;;;;;40.28;18.80;;;6.90;99.90;;;;;;5092936;28;20024;-39
2021/05/02 03:48:52;;;;;;;33.10;18.08;;;6.90;99.90;;;;;;5093054;28;20032;-39
2021/05/02 03:51:18;;;;;;;31.90;18.65;;;6.90;99.90;;;;;;5085376;28;20020;-39
2021/05/02 03:53:43;;;;;;;41.50;20.33;;;6.90;99.90;;;;;;5072859;28;20085;-39
2021/05/02 03:56:09;;;;;;;37.50;19.77;;;6.90;99.90;;;;;;5072502;28;20384;-40
2021/05/02 03:58:34;;;;;;;43.03;21.15;;;6.90;99.90;;;;;;5071330;28;20025;-39
2021/05/02 04:01:00;;;;;;;34.58;18.20;;;6.90;99.90;;;;;;5072658;28;20491;-39
2021/05/02 04:03:25;;;;;;;32.92;17.38;;;6.90;99.90;;;;;;5072513;28;20017;-39
2021/05/02 04:05:51;;;;;;;31.70;16.95;;;6.90;99.90;;;;;;5072389;28;20056;-39
2021/05/02 04:08:16;;;;;;;34.33;18.58;;;6.90;99.90;;;;;;5072413;28;20040;-39
2021/05/02 04:10:42;;;;;;;38.03;19.52;;;6.90;99.90;;;;;;5086780;28;20035;-39
2021/05/02 04:13:07;;;;;;;32.85;16.98;;;6.90;99.90;;;;;;5091292;28;20074;-40
2021/05/02 04:15:33;;;;;;;36.22;19.30;;;6.90;99.90;;;;;;5092295;28;20132;-41
2021/05/02 04:17:58;;;;;;;31.98;17.60;;;6.90;99.90;;;;;;5092740;28;20032;-39
2021/05/02 04:20:24;;;;;;;36.60;18.63;;;7.00;99.90;;;;;;5092624;28;20051;-39
2021/05/02 04:22:49;;;;;;;38.05;18.48;;;7.00;99.90;;;;;;5092696;28;20441;-40
2021/05/02 04:25:15;;;;;;;37.67;18.60;;;7.00;99.90;;;;;;5092442;28;20025;-40
2021/05/02 04:27:40;;;;;;;29.65;15.65;;;7.00;99.90;;;;;;5092379;28;20387;-39
2021/05/02 04:30:07;;;;;;;30.08;16.30;;;7.00;99.90;;;;;;5091310;28;20107;-42
2021/05/02 04:32:32;;;;;;;30.85;15.90;;;7.10;99.90;;;;;;5092514;28;20024;-39
2021/05/02 04:34:58;;;;;;;25.67;15.70;;;7.10;99.90;;;;;;5092543;28;20032;-39
2021/05/02 04:37:23;;;;;;;32.47;17.38;;;7.20;99.90;;;;;;5092441;28;20033;-39
2021/05/02 04:39:49;;;;;;;32.92;15.88;;;7.20;99.90;;;;;;5092403;28;20036;-39
2021/05/02 04:42:14;;;;;;;30.13;16.60;;;7.20;99.90;;;;;;5092223;28;20024;-39
2021/05/02 04:44:40;;;;;;;30.20;16.33;;;7.20;99.90;;;;;;5091038;28;20016;-40
2021/05/02 04:47:05;;;;;;;32.80;18.88;;;7.20;99.90;;;;;;5092489;28;20117;-39
2021/05/02 04:49:31;;;;;;;38.55;20.65;;;7.30;99.90;;;;;;5092427;28;20103;-40
2021/05/02 04:51:57;;;;;;;32.95;18.80;;;7.30;99.90;;;;;;5079359;28;20033;-39
2021/05/02 04:54:22;;;;;;;37.15;20.40;;;7.30;99.90;;;;;;5072165;28;20391;-39
2021/05/02 04:56:48;;;;;;;32.97;18.88;;;7.30;99.90;;;;;;5071920;28;20192;-40
2021/05/02 04:59:14;;;;;;;37.88;22.05;;;7.30;99.90;;;;;;5070700;28;20066;-40
2021/05/02 05:01:42;;;;;;;34.03;19.13;;;7.30;99.90;;;;;;5071924;28;20070;-39
2021/05/02 05:04:07;;;;;;;33.28;19.83;;;7.40;99.90;;;;;;5071928;28;20353;-40
2021/05/02 05:06:34;;;;;;;31.45;18.70;;;7.40;99.90;;;;;;5071883;28;20111;-39
2021/05/02 05:09:00;;;;;;;36.30;19.75;;;7.40;99.90;;;;;;5072186;28;20039;-40
2021/05/02 05:11:25;;;;;;;36.45;21.50;;;7.40;99.90;;;;;;5091908;28;20115;-40
2021/05/02 05:13:51;;;;;;;38.92;22.13;;;7.40;99.90;;;;;;5091060;28;20547;-42
2021/05/02 05:16:16;;;;;;;33.60;20.10;;;7.40;99.90;;;;;;5091902;28;20044;-39
2021/05/02 05:18:42;;;;;;;34.65;19.27;;;7.40;99.90;;;;;;5092059;28;20031;-39
2021/05/02 05:21:08;;;;;;;35.47;20.42;;;7.50;99.90;;;;;;5093268;28;20387;-39
2021/05/02 05:23:33;;;;;;;28.50;16.90;;;7.50;99.90;;;;;;5095981;28;20467;-39
2021/05/02 05:25:59;;;;;;;36.08;19.48;;;7.50;99.90;;;;;;5094198;28;20016;-39
2021/05/02 05:28:25;;;;;;;35.95;20.70;;;7.50;99.90;;;;;;5094139;28;20542;-39
2021/05/02 05:30:55;;;;;;;33.65;18.63;;;7.50;99.90;;;;;;5095569;28;20032;-41
2021/05/02 05:33:21;;;;;;;29.95;16.55;;;7.50;99.90;;;;;;5095574;28;20439;-39
2021/05/02 05:35:47;;;;;;;34.28;19.35;;;7.60;99.90;;;;;;5095611;28;20479;-40
2021/05/02 05:38:13;;;;;;;34.70;19.50;;;7.60;99.90;;;;;;5095430;28;20071;-40
2021/05/02 05:40:39;;;;;;;37.58;20.50;;;7.60;99.90;;;;;;5095382;28;20195;-39
2021/05/02 05:43:05;;;;;;;26.90;17.95;;;7.60;99.90;;;;;;5094088;28;20024;-40
2021/05/02 05:45:32;;;;;;;30.77;17.40;;;7.60;99.90;;;;;;5095038;28;20026;-39
2021/05/02 05:47:58;;;;;;;32.67;18.08;;;7.60;99.90;;;;;;5095433;28;20319;-39
2021/05/02 05:50:25;;;;;;;28.45;16.33;;;7.60;99.90;;;;;;5095052;28;20551;-40
2021/05/02 05:52:52;;;;;;;28.25;15.73;;;7.60;99.90;;;;;;5074948;28;20438;-40
2021/05/02 05:55:19;;;;;;;31.85;18.10;;;7.70;99.90;;;;;;5074701;28;20483;-39
2021/05/02 05:57:46;;;;;;;25.42;15.88;;;7.70;99.90;;;;;;5074880;28;20541;-40
2021/05/02 06:00:12;;;;;;;29.13;15.65;;;7.80;99.90;;;;;;5073506;28;20031;-40
2021/05/02 06:02:38;;;;;;;27.38;16.27;;;7.90;99.90;;;;;;5074637;28;20028;-40
2021/05/02 06:05:04;;;;;;;25.95;15.38;;;8.00;99.90;;;;;;5074546;28;20040;-40
2021/05/02 06:07:30;;;;;;;29.85;16.70;;;8.00;99.90;;;;;;5074505;28;20141;-40
2021/05/02 06:09:56;;;;;;;27.13;17.05;;;8.00;99.90;;;;;;5081211;28;20118;-40
2021/05/02 06:12:21;;;;;;;27.75;16.20;;;8.10;99.90;;;;;;5094642;28;20028;-42
2021/05/02 06:14:47;;;;;;;28.88;17.20;;;8.10;99.90;;;;;;5093595;28;20487;-42
2021/05/02 06:17:12;;;;;;;26.77;16.70;;;8.10;99.90;;;;;;5094541;28;20035;-41
2021/05/02 06:19:38;;;;;;;24.88;15.35;;;8.20;99.90;;;;;;5094722;28;20063;-40
2021/05/02 06:22:04;;;;;;;27.80;15.50;;;8.20;99.90;;;;;;5094505;28;20103;-42
2021/05/02 06:24:30;;;;;;;33.13;18.30;;;8.20;99.90;;;;;;5094569;28;20376;-40
2021/05/02 06:26:56;;;;;;;27.90;15.70;;;8.20;99.90;;;;;;5094378;28;20041;-40
2021/05/02 06:29:21;;;;;;;26.80;16.85;;;8.30;99.90;;;;;;5093614;28;20028;-40
2021/05/02 06:31:47;;;;;;;24.92;14.95;;;8.30;99.90;;;;;;5090321;28;20020;-40
2021/05/02 06:34:13;;;;;;;25.08;14.45;;;8.30;99.90;;;;;;5094152;28;20024;-41
2021/05/02 06:36:40;;;;;;;28.13;17.83;;;8.40;99.90;;;;;;5093923;28;20096;-39
2021/05/02 06:39:06;;;;;;;28.25;16.67;;;8.50;99.90;;;;;;5093877;28;20475;-40
2021/05/02 06:41:31;;;;;;;26.05;16.60;;;8.40;99.90;;;;;;5093983;28;20028;-41
2021/05/02 06:43:57;;;;;;;32.20;20.08;;;8.40;99.90;;;;;;5092987;28;20056;-40
2021/05/02 06:46:29;;;;;;;27.88;17.00;;;8.40;99.90;;;;;;5093583;28;20046;-39
2021/05/02 06:48:56;;;;;;;26.50;16.15;;;8.40;99.90;;;;;;5093904;28;20059;-40
2021/05/02 06:51:22;;;;;;;29.85;17.02;;;8.40;99.90;;;;;;5093902;28;20020;-40
2021/05/02 06:53:47;;;;;;;28.20;15.77;;;8.40;99.90;;;;;;5093589;28;20062;-42
2021/05/02 06:56:13;;;;;;;30.20;18.80;;;8.40;99.90;;;;;;5093575;28;20040;-40
2021/05/02 06:58:38;;;;;;;32.40;18.98;;;8.40;99.90;;;;;;5092592;28;20106;-40
2021/05/02 07:01:04;;;;;;;28.98;16.92;;;8.50;99.90;;;;;;5093738;28;20028;-39
2021/05/02 07:03:29;;;;;;;28.77;16.48;;;8.40;99.90;;;;;;5093573;28;20495;-40
2021/05/02 07:05:55;;;;;;;29.90;17.38;;;8.50;99.90;;;;;;5093351;28;20080;-40
2021/05/02 07:08:20;;;;;;;26.10;16.02;;;8.50;99.90;;;;;;5093618;28;20356;-39
2021/05/02 07:10:46;;;;;;;28.33;16.85;;;8.50;99.90;;;;;;5093569;28;20376;-40
2021/05/02 07:13:12;;;;;;;31.55;17.90;;;8.50;99.90;;;;;;5092701;28;20032;-40
2021/05/02 07:15:39;;;;;;;30.63;17.70;;;8.50;99.90;;;;;;5093397;28;20027;-39
2021/05/02 07:18:05;;;;;;;27.25;16.27;;;8.50;99.90;;;;;;5093286;28;20031;-40
2021/05/02 07:20:30;;;;;;;24.40;15.52;;;8.50;99.90;;;;;;5093560;28;20024;-41
2021/05/02 07:22:56;;;;;;;31.33;18.27;;;8.50;99.90;;;;;;5089352;28;20024;-40
2021/05/02 07:25:23;;;;;;;26.25;15.63;;;8.60;99.90;;;;;;5086173;28;20021;-41
2021/05/02 07:27:50;;;;;;;28.00;17.17;;;8.60;99.90;;;;;;5091387;28;20031;-43
2021/05/02 07:30:18;;;;;;;32.58;18.50;;;8.70;99.90;;;;;;5090753;28;20103;-42
2021/05/02 07:32:43;;;;;;;26.50;16.55;;;8.60;99.90;;;;;;5091161;28;20032;-40
2021/05/02 07:35:09;;;;;;;31.73;19.08;;;8.60;99.90;;;;;;5091571;28;20028;-42
2021/05/02 07:37:35;;;;;;;33.00;18.25;;;8.60;99.90;;;;;;5091110;28;20372;-40
2021/05/02 07:40:00;;;;;;;32.17;20.20;;;8.70;99.90;;;;;;5087561;28;20471;-40
2021/05/02 07:42:26;;;;;;;28.00;18.30;;;8.70;99.90;;;;;;5090995;28;20020;-42
2021/05/02 07:44:52;;;;;;;28.42;17.77;;;8.80;99.90;;;;;;5089787;28;20058;-41
2021/05/02 07:47:18;;;;;;;25.63;16.98;;;8.80;99.90;;;;;;5090860;28;20017;-40
2021/05/02 07:49:44;;;;;;;30.42;18.75;;;8.90;99.90;;;;;;5090975;28;20051;-40
2021/05/02 07:52:10;;;;;;;34.72;20.92;;;8.90;99.90;;;;;;5088827;28;20024;-42
2021/05/02 07:54:35;;;;;;;28.27;18.48;;;9.00;99.90;;;;;;5080217;28;20028;-43
2021/05/02 07:57:00;;;;;;;25.88;17.55;;;9.10;99.90;;;;;;5090466;28;20031;-43
2021/05/02 07:59:26;;;;;;;32.92;21.00;;;9.10;99.90;;;;;;5090124;28;20024;-44
2021/05/02 08:01:51;;;;;;;28.13;17.52;;;9.20;99.90;;;;;;5089327;28;20028;-42
2021/05/02 08:04:17;;;;;;;26.70;17.38;;;9.20;99.90;;;;;;5090600;28;20051;-47
2021/05/02 08:06:42;;;;;;;29.83;18.75;;;9.30;99.90;;;;;;5090509;28;20074;-40
2021/05/02 08:09:08;;;;;;;31.80;19.83;;;9.40;99.90;;;;;;5090808;28;20038;-40
2021/05/02 08:11:33;;;;;;;24.73;16.48;;;9.40;99.90;;;;;;5090747;28;20075;-40
2021/05/02 08:14:00;;;;;;;26.23;18.60;;;9.40;99.90;;;;;;5089591;28;20031;-40
2021/05/02 08:16:26;;;;;;;26.73;18.10;;;9.40;99.90;;;;;;5090755;28;20045;-43
2021/05/02 08:18:51;;;;;;;30.55;19.67;;;9.50;99.90;;;;;;5090330;28;20036;-40
2021/05/02 08:21:19;;;;;;;29.50;18.60;;;9.50;99.90;;;;;;5090522;28;20051;-40
2021/05/02 08:23:45;;;;;;;25.95;17.52;;;9.60;99.90;;;;;;5090305;28;20436;-41
2021/05/02 08:26:10;;;;;;;23.80;16.35;;;9.70;99.90;;;;;;5090849;28;20031;-41
2021/05/02 08:28:37;;;;;;;24.40;16.67;;;9.80;99.90;;;;;;5089636;28;20043;-40
2021/05/02 08:31:03;;;;;;;25.88;16.85;;;9.90;99.90;;;;;;5090374;28;20075;-43
2021/05/02 08:33:28;;;;;;;26.52;17.98;;;9.90;99.90;;;;;;5090445;28;20051;-41
2021/05/02 08:35:54;;;;;;;22.08;15.57;;;10.00;99.90;;;;;;5087910;28;20055;-40
2021/05/02 08:38:19;;;;;;;27.35;16.80;;;10.00;99.90;;;;;;5092257;28;20036;-41
2021/05/02 08:40:45;;;;;;;24.00;16.58;;;10.00;99.90;;;;;;5091924;28;20066;-40
2021/05/02 08:43:11;;;;;;;21.95;14.80;;;10.10;99.90;;;;;;5091241;28;20440;-41
2021/05/02 08:48:11;;;;;;;14.35;9.75;;;10.20;99.90;;;;;;5214242;22;20049;-40
2021/05/02 08:50:37;;;;;;;21.58;13.70;;;10.30;99.90;;;;;;5071633;28;20028;-41
2021/05/02 08:53:06;;;;;;;22.15;14.63;;;10.40;99.90;;;;;;5071688;28;20368;-41
2021/05/02 08:55:31;;;;;;;23.98;16.05;;;10.50;99.90;;;;;;5072426;28;20488;-41
2021/05/02 08:57:57;;;;;;;20.50;13.90;;;10.60;99.90;;;;;;5075009;28;20067;-42
2021/05/02 09:00:22;;;;;;;17.13;12.57;;;10.60;99.90;;;;;;5075501;28;20126;-42
2021/05/02 09:02:53;;;;;;;20.42;13.80;;;10.80;99.90;;;;;;5075516;28;20078;-45
2021/05/02 09:05:19;;;;;;;18.90;13.18;;;10.80;99.90;;;;;;5075726;28;20039;-40
2021/05/02 09:07:46;;;;;;;20.98;15.15;;;10.80;99.90;;;;;;5075668;28;20041;-41
2021/05/02 09:10:13;;;;;;;25.92;17.38;;;10.90;99.90;;;;;;5065559;28;20377;-41
2021/05/02 09:12:41;;;;;;;22.63;16.20;;;10.80;99.90;;;;;;5055632;28;20107;-42
2021/05/02 09:15:18;;;;;;;21.70;16.60;;;10.80;99.90;;;;;;5054483;28;20035;-40
2021/05/02 09:18:12;;;;;;;19.90;14.48;;;10.90;99.90;;;;;;5055241;28;20036;-43
2021/05/02 09:20:48;;;;;;;20.85;15.30;;;10.90;99.90;;;;;;5054329;28;20117;-43
2021/05/02 09:23:15;;;;;;;19.73;14.45;;;11.00;99.90;;;;;;5075154;28;20112;-45
2021/05/02 09:25:49;;;;;;;18.27;14.20;;;10.90;99.90;;;;;;5075204;28;20100;-41
2021/05/02 09:28:16;;;;;;;22.42;16.73;;;11.00;99.90;;;;;;5074191;28;20394;-42
2021/05/02 09:30:41;;;;;;;16.95;13.07;;;11.00;99.90;;;;;;5075270;28;20028;-40
2021/05/02 09:33:07;;;;;;;14.98;10.05;;;11.10;99.90;;;;;;5075016;28;20101;-42
2021/05/02 09:35:35;;;;;;;16.15;11.45;;;11.10;99.90;;;;;;5074997;28;20039;-40
2021/05/02 09:38:14;;;;;;;17.52;12.95;;;11.20;99.90;;;;;;5074910;28;20031;-44
2021/05/02 09:40:51;;;;;;;16.95;13.27;;;11.40;99.90;;;;;;5068097;28;20429;-41
2021/05/02 09:43:36;;;;;;;16.77;12.45;;;11.40;99.90;;;;;;5073690;28;20029;-40
2021/05/02 09:46:23;;;;;;;14.07;11.52;;;11.50;99.90;;;;;;5074627;28;20016;-41
2021/05/02 09:48:49;;;;;;;13.35;9.88;;;11.50;99.90;;;;;;5074349;28;20055;-42
2021/05/02 09:51:15;;;;;;;13.65;10.32;;;11.70;99.90;;;;;;5056569;28;20028;-41
2021/05/02 09:53:58;;;;;;;14.43;10.50;;;11.80;99.90;;;;;;5074577;28;20444;-40
2021/05/02 09:56:30;;;;;;;12.30;9.32;;;11.90;99.90;;;;;;5074642;28;20028;-40
2021/05/02 09:58:56;;;;;;;15.63;11.13;;;12.00;99.90;;;;;;5073359;28;20104;-40
2021/05/02 10:01:21;;;;;;;16.33;11.65;;;12.20;99.90;;;;;;5074450;28;20103;-41
2021/05/02 10:03:53;;;;;;;15.65;11.05;;;12.30;99.90;;;;;;5068914;28;20037;-43
2021/05/02 10:06:32;;;;;;;10.30;8.48;;;12.40;99.90;;;;;;5047231;28;20024;-40
2021/05/02 10:09:00;;;;;;;13.35;9.32;;;12.50;99.90;;;;;;5072605;28;20024;-40
2021/05/02 10:11:26;;;;;;;18.88;12.55;;;12.50;99.90;;;;;;5069688;28;20027;-41
2021/05/02 10:13:53;;;;;;;13.90;10.63;;;12.60;99.90;;;;;;5071385;28;20036;-41
2021/05/02 10:16:18;;;;;;;13.65;10.65;;;12.60;99.90;;;;;;5072744;28;20494;-41
2021/05/02 10:18:44;;;;;;;14.40;9.70;;;12.60;99.90;;;;;;5072385;28;20039;-43
2021/05/02 10:21:10;;;;;;;13.82;10.15;;;12.70;99.90;;;;;;5072270;28;20040;-41
2021/05/02 10:23:36;;;;;;;11.75;8.75;;;12.70;99.90;;;;;;5072510;28;20052;-41
2021/05/02 10:26:03;;;;;;;11.98;10.02;;;12.90;99.90;;;;;;5072211;28;20027;-41
2021/05/02 10:28:30;;;;;;;10.75;8.48;;;13.00;99.90;;;;;;5071475;28;20040;-41
2021/05/02 10:31:07;;;;;;;18.15;14.25;;;13.10;99.90;;;;;;5072182;28;20028;-40
2021/05/02 10:33:44;;;;;;;15.30;11.75;;;13.20;99.90;;;;;;5072293;28;20522;-39
2021/05/02 10:36:11;;;;;;;16.50;12.60;;;13.10;99.90;;;;;;5077387;28;20126;-43
2021/05/02 10:38:44;;;;;;;13.07;9.60;;;13.10;99.90;;;;;;5081242;28;20036;-39
2021/05/02 10:41:44;;;;;;;13.75;10.40;;;13.10;99.90;;;;;;5058787;28;20040;-41
2021/05/02 10:44:10;;;;;;;14.20;11.63;;;13.30;99.90;;;;;;5052924;28;20124;-39
2021/05/02 10:46:41;;;;;;;14.60;11.25;;;13.30;98.20;;;;;;5071974;28;20123;-42
2021/05/02 10:49:08;;;;;;;15.00;10.30;;;13.30;97.80;;;;;;5071671;28;20028;-40
2021/05/02 10:51:34;;;;;;;13.65;10.25;;;13.30;99.80;;;;;;5071789;28;20016;-39
2021/05/02 10:54:03;;;;;;;16.02;10.40;;;13.40;99.90;;;;;;5090221;28;20024;-40
2021/05/02 10:56:45;;;;;;;11.85;10.27;;;13.50;99.70;;;;;;5092218;28;20060;-40
2021/05/02 10:59:11;;;;;;;11.77;9.35;;;13.40;98.00;;;;;;5090954;28;20024;-39
2021/05/02 11:01:38;;;;;;;13.60;10.80;;;13.40;98.60;;;;;;5092035;28;20053;-39
2021/05/02 11:04:05;;;;;;;13.10;10.40;;;13.50;98.30;;;;;;5090599;28;20472;-44
2021/05/02 11:06:40;;;;;;;17.27;12.95;;;13.60;97.20;;;;;;5073206;28;20369;-41
2021/05/02 11:09:18;;;;;;;12.48;10.15;;;13.70;93.00;;;;;;5091533;28;20036;-40
2021/05/02 11:11:50;;;;;;;14.30;9.65;;;13.80;94.80;;;;;;5091567;28;20028;-39
2021/05/02 11:14:21;;;;;;;14.15;10.68;;;13.90;94.50;;;;;;5090551;28;20032;-40
2021/05/02 11:16:56;;;;;;;12.77;10.20;;;14.20;94.70;;;;;;5091336;28;20024;-39
2021/05/02 11:19:37;;;;;;;10.60;8.73;;;14.40;93.50;;;;;;5090579;28;20032;-39
2021/05/02 11:22:08;;;;;;;13.80;10.30;;;14.70;93.20;;;;;;5091383;28;20048;-40
2021/05/02 11:24:39;;;;;;;12.93;9.55;;;14.90;92.40;;;;;;5091290;28;20490;-39
2021/05/02 11:27:17;;;;;;;13.10;10.38;;;14.90;90.70;;;;;;5090848;28;20213;-41
2021/05/02 11:32:49;;;;;;;12.27;9.18;;;14.80;89.50;;;;;;5078643;28;20028;-42
2021/05/02 11:35:39;;;;;;;12.70;9.25;;;14.70;89.50;;;;;;5095656;28;20031;-40
2021/05/02 11:38:05;;;;;;;16.40;11.23;;;14.70;89.00;;;;;;5083569;28;20044;-41
2021/05/02 11:40:36;;;;;;;13.80;10.75;;;14.80;90.00;;;;;;5071051;28;20025;-41
2021/05/02 11:43:16;;;;;;;14.65;11.75;;;15.00;88.70;;;;;;5069804;28;20020;-40
2021/05/02 11:45:54;;;;;;;12.68;10.05;;;14.90;83.70;;;;;;5072551;28;20024;-40
2021/05/02 11:48:25;;;;;;;11.18;9.38;;;14.70;85.80;;;;;;5090815;28;20056;-44
2021/05/02 11:50:58;;;;;;;12.98;10.40;;;14.60;86.50;;;;;;5087172;28;20017;-42
2021/05/02 11:53:38;;;;;;;11.85;8.65;;;14.60;86.70;;;;;;5069678;28;20056;-42
2021/05/02 11:56:30;;;;;;;13.98;10.23;;;14.60;84.90;;;;;;5070455;28;20024;-43
2021/05/02 11:59:02;;;;;;;12.02;9.02;;;14.60;81.80;;;;;;5070135;28;20101;-45
2021/05/02 12:01:30;;;;;;;11.70;8.70;;;14.70;85.20;;;;;;5070917;28;20021;-40
2021/05/02 12:04:07;;;;;;;13.23;11.60;;;14.80;86.00;;;;;;5071282;28;20099;-42
2021/05/02 12:06:35;;;;;;;10.10;8.50;;;14.70;80.80;;;;;;5070487;28;20025;-40
2021/05/02 12:09:16;;;;;;;9.25;8.18;;;14.80;84.20;;;;;;5067436;28;20074;-40
2021/05/02 12:11:45;;;;;;;11.27;9.38;;;14.90;83.00;;;;;;5071765;28;20042;-40
2021/05/02 12:14:18;;;;;;;9.93;8.43;;;14.90;82.00;;;;;;5069562;28;20034;-40
2021/05/02 12:16:49;;;;;;;10.90;7.72;;;14.90;80.10;;;;;;5070518;28;20033;-40
2021/05/02 12:19:16;;;;;;;9.27;8.02;;;14.80;82.90;;;;;;5070182;28;20029;-39
2021/05/02 12:21:46;;;;;;;10.43;8.18;;;14.60;83.60;;;;;;5070445;28;20025;-40
2021/05/02 12:24:37;;;;;;;10.00;8.13;;;14.50;84.10;;;;;;5070211;28;20029;-40
2021/05/02 12:27:07;;;;;;;9.88;7.32;;;14.30;83.30;;;;;;5065576;28;20060;-39
2021/05/02 12:29:39;;;;;;;12.18;8.20;;;14.10;85.10;;;;;;5069602;28;20066;-40
2021/05/02 12:32:07;;;;;;;10.43;8.18;;;13.80;85.30;;;;;;5074221;28;20498;-39
2021/05/02 12:34:38;;;;;;;11.48;8.68;;;13.60;86.20;;;;;;5074238;28;20056;-40
2021/05/02 12:37:08;;;;;;;12.25;9.60;;;13.50;86.00;;;;;;5074050;28;20055;-39
2021/05/02 12:39:37;;;;;;;10.88;8.57;;;13.40;86.50;;;;;;5074341;28;20357;-39
2021/05/02 12:42:03;;;;;;;8.05;6.78;;;13.40;86.70;;;;;;5078632;28;20000;-41
2021/05/02 12:44:30;;;;;;;8.07;6.43;;;13.30;87.40;;;;;;5072742;28;20067;-40
2021/05/02 12:47:00;;;;;;;21.67;14.27;;;13.30;87.70;;;;;;5074227;28;20108;-40
2021/05/02 12:49:28;;;;;;;16.23;10.30;;;13.30;88.30;;;;;;5074034;28;20487;-40